createdAt,value
2019-04-29T00:01:48.028Z,18.92
2019-04-29T00:04:15.337Z,17.02
2019-04-29T00:06:42.617Z,17.50
2019-04-29T00:09:11.862Z,15.48
2019-04-29T00:11:39.301Z,19.30
2019-04-29T00:14:07.492Z,15.03
2019-04-29T00:16:36.589Z,18.57
2019-04-29T00:19:20.711Z,17.32
2019-04-29T00:21:48.367Z,16.15
2019-04-29T00:24:15.784Z,16.30
2019-04-29T00:26:43.194Z,17.50
2019-04-29T00:29:10.601Z,16.05
2019-04-29T00:31:37.990Z,15.55
2019-04-29T00:34:05.480Z,16.57
2019-04-29T00:36:34.590Z,15.90
2019-04-29T00:39:15.651Z,16.35
2019-04-29T00:41:50.636Z,17.23
2019-04-29T00:44:18.025Z,17.90
2019-04-29T00:46:45.520Z,19.12
2019-04-29T00:49:12.916Z,18.40
2019-04-29T00:51:40.417Z,15.23
2019-04-29T00:54:12.165Z,17.37
2019-04-29T00:56:38.582Z,16.80
2019-04-29T00:59:05.961Z,31.20
2019-04-29T01:01:33.334Z,23.38
2019-04-29T01:04:00.736Z,16.77
2019-04-29T01:06:28.198Z,16.27
2019-04-29T01:08:55.725Z,17.17
2019-04-29T01:11:23.130Z,17.20
2019-04-29T01:13:50.502Z,18.70
2019-04-29T01:16:17.962Z,20.43
2019-04-29T01:18:45.361Z,15.35
2019-04-29T01:21:12.768Z,16.37
2019-04-29T01:23:40.228Z,18.00
2019-04-29T01:26:25.384Z,21.05
2019-04-29T01:28:54.406Z,16.42
2019-04-29T01:31:23.478Z,17.30
2019-04-29T01:33:52.546Z,17.12
2019-04-29T01:36:24.220Z,17.12
2019-04-29T01:38:53.304Z,16.62
2019-04-29T01:41:30.798Z,17.45
2019-04-29T01:44:05.453Z,17.75
2019-04-29T01:46:32.950Z,20.23
2019-04-29T01:49:01.059Z,21.23
2019-04-29T01:51:28.382Z,16.35
2019-04-29T01:53:55.850Z,20.02
2019-04-29T01:56:24.620Z,21.17
2019-04-29T01:58:52.077Z,16.60
2019-04-29T02:01:19.452Z,20.32
2019-04-29T02:03:46.915Z,20.23
2019-04-29T02:06:14.440Z,16.10
2019-04-29T02:08:41.983Z,19.30
2019-04-29T02:11:09.315Z,20.35
2019-04-29T02:13:36.730Z,16.57
2019-04-29T02:16:05.020Z,19.05
2019-04-29T02:18:33.614Z,18.75
2019-04-29T02:21:01.061Z,18.10
2019-04-29T02:23:35.744Z,17.65
2019-04-29T02:26:03.088Z,18.90
2019-04-29T02:28:30.509Z,19.12
2019-04-29T02:30:59.930Z,19.20
2019-04-29T02:33:27.725Z,16.77
2019-04-29T02:35:55.067Z,16.87
2019-04-29T02:38:32.908Z,18.17
2019-04-29T02:41:02.025Z,21.37
2019-04-29T02:43:40.408Z,20.35
2019-04-29T02:46:07.741Z,22.20
2019-04-29T02:48:35.229Z,17.25
2019-04-29T02:51:02.623Z,21.25
2019-04-29T02:53:29.972Z,19.95
2019-04-29T02:55:59.137Z,21.50
2019-04-29T02:58:37.159Z,19.20
2019-04-29T03:01:23.209Z,24.63
2019-04-29T03:03:58.189Z,17.60
2019-04-29T03:06:25.626Z,20.23
2019-04-29T03:08:53.146Z,20.02
2019-04-29T03:11:20.920Z,20.17
2019-04-29T03:13:48.422Z,18.62
2019-04-29T03:16:15.826Z,22.75
2019-04-29T03:18:44.864Z,19.05
2019-04-29T03:21:26.006Z,21.85
2019-04-29T03:23:54.178Z,21.00
2019-04-29T03:26:21.599Z,20.30
2019-04-29T03:28:49.028Z,25.05
2019-04-29T03:31:16.446Z,24.25
2019-04-29T03:33:43.909Z,19.80
2019-04-29T03:36:11.418Z,22.00
2019-04-29T03:38:38.885Z,21.87
2019-04-29T03:41:06.257Z,22.82
2019-04-29T03:43:33.608Z,25.90
2019-04-29T03:46:00.915Z,24.52
2019-04-29T03:48:28.265Z,24.32
2019-04-29T03:50:55.548Z,22.70
2019-04-29T03:53:22.828Z,22.37
2019-04-29T03:55:51.765Z,24.12
2019-04-29T03:58:19.063Z,26.42
2019-04-29T04:00:48.129Z,26.20
2019-04-29T04:03:19.801Z,25.68
2019-04-29T04:05:48.849Z,21.50
2019-04-29T04:08:23.431Z,20.57
2019-04-29T04:10:50.790Z,20.20
2019-04-29T04:13:18.099Z,21.27
2019-04-29T04:15:45.452Z,21.20
2019-04-29T04:18:20.171Z,27.52
2019-04-29T04:20:47.532Z,24.37
2019-04-29T04:23:14.891Z,26.05
2019-04-29T04:25:42.175Z,24.20
2019-04-29T04:28:09.469Z,23.62
2019-04-29T04:30:36.777Z,21.23
2019-04-29T04:33:04.239Z,38.17
2019-04-29T04:35:31.550Z,170.68
2019-04-29T04:37:58.915Z,23.80
2019-04-29T04:40:30.623Z,25.45
2019-04-29T04:42:57.992Z,23.47
2019-04-29T04:45:25.284Z,23.12
2019-04-29T04:47:52.574Z,25.15
2019-04-29T04:50:19.884Z,24.65
2019-04-29T04:52:47.182Z,22.48
2019-04-29T04:55:14.537Z,26.50
2019-04-29T04:57:41.847Z,22.65
2019-04-29T05:00:13.986Z,29.02
2019-04-29T05:02:41.375Z,23.38
2019-04-29T05:05:09.002Z,24.02
2019-04-29T05:07:36.291Z,25.00
2019-04-29T05:10:04.242Z,24.43
2019-04-29T05:12:31.553Z,23.57
2019-04-29T05:14:58.897Z,23.25
2019-04-29T05:17:26.219Z,23.52
2019-04-29T05:19:53.524Z,24.35
2019-04-29T05:22:20.843Z,22.07
2019-04-29T05:24:48.741Z,23.85
2019-04-29T05:27:16.082Z,22.22
2019-04-29T05:29:43.430Z,22.20
2019-04-29T05:32:10.724Z,23.20
2019-04-29T05:34:41.899Z,21.65
2019-04-29T05:37:10.312Z,23.07
2019-04-29T05:39:39.250Z,23.12
2019-04-29T05:42:07.732Z,25.48
2019-04-29T05:44:37.242Z,26.85
2019-04-29T05:47:06.290Z,21.60
2019-04-29T05:49:37.405Z,23.92
2019-04-29T05:52:07.156Z,22.93
2019-04-29T05:54:35.522Z,21.73
2019-04-29T05:57:02.881Z,18.40
2019-04-29T05:59:30.172Z,19.42
2019-04-29T06:01:57.480Z,21.50
2019-04-29T06:04:24.848Z,21.17
2019-04-29T06:06:52.212Z,22.82
2019-04-29T06:09:19.510Z,21.55
2019-04-29T06:11:46.808Z,22.00
2019-04-29T06:14:14.242Z,21.95
2019-04-29T06:16:41.521Z,21.23
2019-04-29T06:19:08.830Z,23.87
2019-04-29T06:21:36.102Z,22.45
2019-04-29T06:24:06.259Z,23.10
2019-04-29T06:26:33.286Z,23.80
2019-04-29T06:29:00.687Z,21.65
2019-04-29T06:31:28.058Z,20.50
2019-04-29T06:33:55.390Z,22.30
2019-04-29T06:36:22.836Z,22.42
2019-04-29T06:38:50.170Z,19.67
2019-04-29T06:41:17.542Z,20.85
2019-04-29T06:43:44.838Z,18.90
2019-04-29T06:46:12.136Z,19.45
2019-04-29T06:48:39.504Z,19.15
2019-04-29T06:51:06.826Z,20.88
2019-04-29T06:53:34.137Z,23.10
2019-04-29T06:56:01.508Z,21.00
2019-04-29T06:58:32.581Z,18.12
2019-04-29T07:01:01.580Z,18.02
2019-04-29T07:03:26.822Z,18.52
2019-04-29T07:05:54.110Z,18.75
2019-04-29T07:08:21.497Z,18.42
2019-04-29T07:10:48.887Z,17.52
2019-04-29T07:13:17.869Z,16.95
2019-04-29T07:15:47.861Z,15.98
2019-04-29T07:18:14.241Z,15.98
2019-04-29T07:20:41.644Z,14.98
2019-04-29T07:26:39.675Z,15.05
2019-04-29T07:29:10.287Z,12.35
2019-04-29T07:31:45.913Z,13.90
2019-04-29T07:34:13.635Z,14.23
2019-04-29T07:36:41.451Z,12.50
2019-04-29T07:39:10.359Z,12.68
2019-04-29T07:47:31.167Z,12.37
2019-04-29T11:45:13.531Z,26.75
2019-04-29T11:47:40.827Z,27.60
2019-04-29T11:50:12.007Z,26.80
2019-04-29T11:52:40.513Z,22.17
2019-04-29T11:55:08.229Z,27.82
2019-04-29T11:57:41.025Z,25.37
2019-04-29T12:00:14.415Z,24.57
2019-04-29T12:02:46.352Z,22.73
2019-04-29T12:05:21.111Z,23.12
2019-04-29T12:07:49.009Z,18.90
2019-04-29T12:10:16.346Z,20.48
2019-04-29T12:12:47.810Z,26.93
2019-04-29T12:15:35.329Z,21.10
2019-04-29T12:18:15.995Z,20.65
2019-04-29T12:20:47.961Z,18.57
2019-04-29T12:23:15.966Z,20.43
2019-04-29T12:25:45.724Z,22.77
2019-04-29T12:28:19.133Z,24.60
2019-04-29T12:30:45.194Z,19.92
2019-04-29T12:33:14.451Z,21.07
2019-04-29T12:35:52.080Z,20.50
2019-04-29T12:38:17.250Z,20.32
2019-04-29T12:40:49.796Z,18.00
2019-04-29T12:43:25.811Z,20.05
2019-04-29T12:45:55.059Z,19.30
2019-04-29T12:48:24.948Z,18.23
2019-04-29T12:50:57.313Z,16.82
2019-04-29T12:53:20.607Z,18.02
2019-04-29T12:55:53.360Z,17.77
2019-04-29T12:58:19.153Z,16.12
2019-04-29T13:00:55.866Z,17.90
2019-04-29T13:03:38.962Z,18.77
2019-04-29T13:06:23.582Z,15.95
2019-04-29T13:08:47.933Z,22.07
2019-04-29T13:11:19.177Z,18.67
2019-04-29T13:13:44.617Z,19.02
2019-04-29T13:16:20.580Z,17.70
2019-04-29T13:18:53.941Z,17.17
2019-04-29T13:21:19.955Z,16.93
2019-04-29T13:24:04.892Z,15.68
2019-04-29T13:26:27.424Z,17.07
2019-04-29T13:28:59.051Z,16.93
2019-04-29T13:31:15.253Z,19.10
2019-04-29T13:33:46.061Z,18.42
2019-04-29T13:36:12.358Z,17.85
2019-04-29T13:38:39.839Z,17.92
2019-04-29T13:41:13.495Z,16.73
2019-04-29T13:43:36.360Z,15.90
2019-04-29T13:46:12.944Z,15.98
2019-04-29T13:49:10.467Z,16.77
2019-04-29T13:51:36.354Z,17.50
2019-04-29T13:53:59.818Z,19.90
2019-04-29T13:56:39.400Z,17.27
2019-04-29T13:58:58.607Z,16.87
2019-04-29T14:01:57.852Z,17.10
2019-04-29T14:04:11.917Z,17.32
2019-04-29T14:06:40.866Z,16.40
2019-04-29T14:09:08.423Z,17.27
2019-04-29T14:11:35.859Z,16.87
2019-04-29T14:17:17.078Z,17.37
2019-04-29T14:19:40.345Z,18.75
2019-04-29T14:21:55.312Z,18.80
2019-04-29T14:24:23.068Z,18.10
2019-04-29T14:26:50.492Z,19.27
2019-04-29T14:29:17.860Z,18.07
2019-04-29T14:31:46.826Z,22.95
2019-04-29T14:34:24.441Z,19.50
2019-04-29T14:36:57.463Z,20.68
2019-04-29T14:39:36.725Z,18.55
2019-04-29T14:41:55.442Z,19.60
2019-04-29T14:44:31.474Z,19.98
2019-04-29T14:47:12.360Z,18.00
2019-04-29T14:49:49.457Z,19.40
2019-04-29T14:52:19.744Z,18.12
2019-04-29T14:54:47.680Z,20.43
2019-04-29T14:57:15.190Z,20.57
2019-04-29T15:00:02.697Z,18.10
2019-04-29T15:02:29.841Z,19.10
2019-04-29T15:04:57.460Z,20.68
2019-04-29T15:07:26.517Z,19.50
2019-04-29T15:10:06.997Z,19.82
2019-04-29T15:12:56.587Z,19.60
2019-04-29T15:15:29.847Z,16.15
2019-04-29T15:18:15.336Z,20.37
2019-04-29T15:20:41.892Z,19.35
2019-04-29T15:23:09.208Z,20.57
2019-04-29T15:25:40.196Z,22.52
2019-04-29T15:28:07.786Z,20.00
2019-04-29T15:30:36.752Z,19.77
2019-04-29T15:33:04.688Z,20.95
2019-04-29T15:35:33.600Z,21.15
2019-04-29T15:38:00.947Z,21.02
2019-04-29T15:40:29.025Z,18.57
2019-04-29T15:42:56.584Z,21.65
2019-04-29T15:45:24.130Z,24.07
2019-04-29T15:47:53.331Z,26.52
2019-04-29T15:50:24.059Z,26.77
2019-04-29T15:52:58.812Z,25.12
2019-04-29T15:55:28.966Z,22.85
2019-04-29T15:57:57.968Z,22.35
2019-04-29T16:00:26.689Z,22.73
2019-04-29T16:02:55.409Z,24.07
2019-04-29T16:05:33.621Z,28.45
2019-04-29T16:08:07.907Z,24.95
2019-04-29T16:10:40.197Z,24.82
2019-04-29T16:13:15.122Z,24.18
2019-04-29T16:15:42.685Z,23.25
2019-04-29T16:18:10.596Z,24.05
2019-04-29T16:20:39.575Z,22.75
2019-04-29T16:23:10.727Z,25.48
2019-04-29T16:25:40.996Z,24.43
2019-04-29T16:28:09.685Z,23.67
2019-04-29T16:30:37.167Z,25.82
2019-04-29T16:33:13.422Z,26.80
2019-04-29T16:38:05.684Z,28.73
2019-04-29T16:40:39.067Z,28.83
2019-04-29T16:43:10.604Z,26.60
2019-04-29T16:45:53.659Z,24.23
2019-04-29T16:48:21.927Z,24.18
2019-04-29T16:50:49.381Z,25.57
2019-04-29T16:53:16.818Z,28.00
2019-04-29T16:55:44.441Z,26.17
2019-04-29T16:58:18.235Z,25.02
2019-04-29T17:03:11.286Z,27.42
2019-04-29T17:05:38.754Z,28.10
2019-04-29T17:08:12.808Z,28.83
2019-04-29T17:10:52.361Z,32.50
2019-04-29T17:13:23.779Z,28.25
2019-04-29T17:15:52.351Z,28.30
2019-04-29T17:18:18.624Z,29.72
2019-04-29T17:20:46.141Z,34.05
2019-04-29T17:23:13.634Z,30.70
2019-04-29T17:25:41.155Z,29.15
2019-04-29T17:28:28.781Z,29.48
2019-04-29T17:31:12.568Z,37.33
2019-04-29T17:33:50.060Z,36.13
2019-04-29T17:35:14.556Z,27.93
2019-04-29T17:35:19.310Z,26.62
2019-04-29T17:36:22.987Z,33.63
2019-04-29T17:38:45.361Z,33.80
2019-04-29T17:41:12.887Z,40.35
2019-04-29T17:43:44.741Z,33.85
2019-04-29T17:46:19.368Z,33.83
2019-04-29T17:48:48.588Z,32.75
2019-04-29T17:51:17.586Z,36.55
2019-04-29T17:53:46.678Z,41.50
2019-04-29T17:56:19.407Z,40.90
2019-04-29T17:58:52.584Z,29.30
2019-04-29T18:01:46.925Z,37.48
2019-04-29T18:04:30.817Z,40.50
2019-04-29T18:07:10.558Z,42.70
2019-04-29T18:09:33.236Z,42.55
2019-04-29T18:12:01.408Z,44.85
2019-04-29T18:14:36.747Z,50.28
2019-04-29T18:17:02.443Z,48.08
2019-04-29T18:19:37.342Z,42.83
2019-04-29T18:22:12.391Z,48.83
2019-04-29T18:24:50.209Z,45.83
2019-04-29T18:27:19.209Z,53.13
2019-04-29T18:29:47.703Z,50.55
2019-04-29T18:32:16.778Z,49.10
2019-04-29T18:34:45.296Z,50.40
2019-04-29T18:37:12.841Z,53.45
2019-04-29T18:39:40.258Z,49.73
2019-04-29T18:42:15.941Z,56.55
2019-04-29T18:44:56.534Z,51.85
2019-04-29T18:47:20.650Z,55.58
2019-04-29T18:49:43.413Z,58.80
2019-04-29T18:52:11.471Z,58.63
2019-04-29T18:54:39.113Z,65.45
2019-04-29T18:57:06.533Z,59.98
2019-04-29T18:59:36.801Z,60.45
2019-04-29T19:02:07.900Z,60.65
2019-04-29T19:04:48.500Z,62.53
2019-04-29T19:07:13.222Z,63.30
2019-04-29T19:09:41.033Z,68.25
2019-04-29T19:12:08.465Z,62.58
2019-04-29T19:14:35.855Z,73.80
2019-04-29T19:17:04.746Z,65.80
2019-04-29T19:19:35.817Z,65.72
2019-04-29T19:22:07.661Z,71.47
2019-04-29T19:24:36.484Z,79.62
2019-04-29T19:27:02.581Z,75.78
2019-04-29T19:29:30.229Z,81.92
2019-04-29T19:32:01.533Z,66.55
2019-04-29T19:34:40.009Z,69.97
2019-04-29T19:36:59.569Z,76.17
2019-04-29T19:39:28.546Z,73.45
2019-04-29T19:41:55.836Z,71.72
2019-04-29T19:44:26.393Z,69.97
2019-04-29T19:46:52.299Z,69.55
2019-04-29T19:49:23.362Z,71.55
2019-04-29T19:51:51.730Z,70.92
2019-04-29T19:54:24.615Z,74.92
2019-04-29T19:56:48.464Z,72.80
2019-04-29T19:59:17.450Z,74.15
2019-04-29T20:01:48.808Z,72.87
2019-04-29T20:04:32.150Z,75.15
2019-04-29T20:07:06.279Z,64.77
2019-04-29T20:09:31.881Z,71.53
2019-04-29T20:12:00.547Z,68.87
2019-04-29T20:14:33.365Z,76.07
2019-04-29T20:17:17.650Z,71.90
2019-04-29T20:19:55.322Z,61.37
2019-04-29T20:22:16.316Z,71.33
2019-04-29T20:24:49.321Z,63.20
2019-04-29T20:27:14.991Z,73.28
2019-04-29T20:29:42.501Z,71.45
2019-04-29T20:32:09.873Z,78.07
2019-04-29T20:34:37.378Z,75.95
2019-04-29T20:37:10.832Z,72.80
2019-04-29T20:39:36.482Z,71.65
2019-04-29T20:42:10.065Z,76.97
2019-04-29T20:44:36.532Z,71.72
2019-04-29T20:47:16.606Z,69.55
2019-04-29T20:49:36.080Z,80.40
2019-04-29T20:52:02.947Z,79.25
2019-04-29T20:54:32.093Z,79.35
2019-04-29T20:57:04.938Z,77.55
2019-04-29T20:59:28.771Z,71.00
2019-04-29T21:02:11.299Z,78.22
2019-04-29T21:04:34.036Z,82.08
2019-04-29T21:07:02.089Z,74.65
2019-04-29T21:09:30.165Z,79.05
2019-04-29T21:12:20.383Z,75.87
2019-04-29T21:14:48.385Z,89.85
2019-04-29T21:17:28.203Z,88.45
2019-04-29T21:19:44.909Z,79.17
2019-04-29T21:22:12.878Z,86.08
2019-04-29T21:24:45.211Z,88.90
2019-04-29T21:27:15.997Z,92.62
2019-04-29T21:29:41.309Z,81.02
2019-04-29T21:32:08.743Z,86.65
2019-04-29T21:34:38.739Z,94.10
2019-04-29T21:37:10.115Z,91.92
2019-04-29T21:39:50.889Z,103.67
2019-04-29T21:42:19.973Z,94.95
2019-04-29T21:44:47.267Z,92.95
2019-04-29T21:47:16.184Z,78.83
2019-04-29T21:49:45.699Z,95.83
2019-04-29T21:52:15.222Z,95.05
2019-04-29T21:54:44.511Z,81.60
2019-04-29T21:57:11.829Z,92.08
2019-04-29T21:59:41.389Z,91.92
2019-04-29T22:02:11.416Z,100.38
2019-04-29T22:04:38.554Z,86.10
2019-04-29T22:07:08.177Z,93.50
2019-04-29T22:09:36.441Z,91.95
2019-04-29T22:12:05.561Z,94.30
2019-04-29T22:14:34.574Z,76.57
2019-04-29T22:17:02.019Z,88.87
2019-04-29T22:19:29.398Z,85.83
2019-04-29T22:22:00.239Z,82.95
2019-04-29T22:24:26.140Z,87.33
2019-04-29T22:26:56.496Z,78.75
2019-04-29T22:29:24.497Z,78.45
2019-04-29T22:31:51.871Z,72.85
2019-04-29T22:34:19.535Z,81.35
2019-04-29T22:36:48.032Z,72.60
2019-04-29T22:39:15.919Z,92.50
2019-04-29T22:41:59.703Z,84.97
2019-04-29T22:44:27.151Z,74.82
2019-04-29T22:46:55.527Z,83.62
2019-04-29T22:49:27.179Z,73.92
2019-04-29T22:51:55.827Z,81.97
2019-04-29T22:54:22.132Z,80.60
2019-04-29T22:56:53.661Z,88.92
2019-04-29T22:59:20.181Z,81.72
2019-04-29T23:01:50.440Z,93.33
2019-04-29T23:04:17.902Z,89.28
2019-04-29T23:06:48.041Z,95.20
2019-04-29T23:09:14.392Z,95.30
2019-04-29T23:11:41.690Z,99.30
2019-04-29T23:14:10.192Z,98.00
2019-04-29T23:16:37.695Z,94.17
2019-04-29T23:19:09.877Z,106.10
2019-04-29T23:21:49.345Z,106.87
2019-04-29T23:24:18.280Z,78.25
2019-04-29T23:26:45.583Z,95.72
2019-04-29T23:29:12.909Z,96.35
2019-04-29T23:31:40.207Z,86.95
2019-04-29T23:34:07.543Z,93.27
2019-04-29T23:36:34.819Z,93.47
2019-04-29T23:39:02.134Z,87.97
2019-04-29T23:41:32.932Z,96.45
2019-04-29T23:43:59.868Z,96.67
2019-04-29T23:46:29.706Z,78.05
2019-04-29T23:49:03.173Z,110.70
2019-04-29T23:51:27.390Z,92.35
2019-04-29T23:53:56.720Z,90.55
2019-04-29T23:56:26.370Z,98.35
2019-04-29T23:58:57.839Z,91.05
